createdAt,value
2018-03-01T00:01:35.998Z,1.47
2018-03-01T00:04:03.556Z,1.25
2018-03-01T00:06:31.112Z,0.87
2018-03-01T00:08:59.683Z,0.86
2018-03-01T00:11:27.239Z,0.85
2018-03-01T00:13:54.837Z,0.81
2018-03-01T00:16:22.428Z,1.11
2018-03-01T00:18:49.992Z,0.87
2018-03-01T00:21:17.866Z,0.88
2018-03-01T00:23:45.469Z,0.67
2018-03-01T00:26:13.307Z,0.56
2018-03-01T00:28:41.483Z,0.29
2018-03-01T00:31:09.068Z,0.28
2018-03-01T00:33:37.406Z,0.06
2018-03-01T00:36:05.558Z,-0.05
2018-03-01T00:38:33.143Z,-0.43
2018-03-01T00:41:00.754Z,-0.51
2018-03-01T00:43:28.312Z,-0.37
2018-03-01T00:45:55.859Z,-0.99
2018-03-01T00:48:23.465Z,-1.58
2018-03-01T00:50:51.028Z,-1.70
2018-03-01T00:53:18.628Z,-1.55
2018-03-01T00:55:46.179Z,-1.52
2018-03-01T00:58:13.780Z,-1.81
2018-03-01T01:00:41.757Z,-1.98
2018-03-01T01:03:09.347Z,-2.08
2018-03-01T01:05:36.946Z,-2.53
2018-03-01T01:08:04.513Z,-2.49
2018-03-01T01:10:32.084Z,-2.59
2018-03-01T01:12:59.678Z,-3.02
2018-03-01T01:15:27.244Z,-3.06
2018-03-01T01:17:54.845Z,-3.05
2018-03-01T01:20:23.922Z,-3.28
2018-03-01T01:22:51.544Z,-3.39
2018-03-01T01:25:19.134Z,-3.83
2018-03-01T01:27:46.687Z,-3.80
2018-03-01T01:30:14.280Z,-3.88
2018-03-01T01:32:41.878Z,-3.88
2018-03-01T01:35:09.446Z,-4.00
2018-03-01T01:37:37.927Z,-4.12
2018-03-01T01:40:05.523Z,-3.91
2018-03-01T01:42:33.123Z,-3.78
2018-03-01T01:45:00.694Z,-3.40
2018-03-01T01:47:28.256Z,-2.82
2018-03-01T01:49:55.869Z,-2.64
2018-03-01T01:52:23.433Z,-2.82
2018-03-01T01:54:51.030Z,-2.42
2018-03-01T01:57:18.612Z,-2.05
2018-03-01T01:59:46.159Z,-1.42
2018-03-01T02:02:13.769Z,-1.41
2018-03-01T02:04:42.031Z,-1.79
2018-03-01T02:07:09.625Z,-2.24
2018-03-01T02:09:38.152Z,-3.13
2018-03-01T02:12:05.708Z,-3.69
2018-03-01T02:14:33.315Z,-3.82
2018-03-01T02:17:00.924Z,-3.71
2018-03-01T02:19:28.537Z,-3.26
2018-03-01T02:21:56.154Z,-2.85
2018-03-01T02:24:23.957Z,-2.70
2018-03-01T02:26:51.565Z,-3.04
2018-03-01T02:29:19.115Z,-3.63
2018-03-01T02:31:46.715Z,-3.80
2018-03-01T02:34:14.324Z,-4.14
2018-03-01T02:36:41.931Z,-4.52
2018-03-01T02:39:09.636Z,-4.67
2018-03-01T02:41:37.249Z,-4.91
2018-03-01T02:44:05.785Z,-4.66
2018-03-01T02:46:33.331Z,-4.63
2018-03-01T02:49:00.920Z,-4.53
2018-03-01T02:51:28.535Z,-4.56
2018-03-01T02:53:56.127Z,-4.53
2018-03-01T02:56:23.740Z,-4.52
2018-03-01T02:58:51.372Z,-4.12
2018-03-01T03:01:18.967Z,-3.50
2018-03-01T03:03:46.522Z,-3.61
2018-03-01T03:06:14.448Z,-4.22
2018-03-01T03:08:42.049Z,-4.28
2018-03-01T03:11:09.613Z,-4.27
2018-03-01T03:13:37.211Z,-3.91
2018-03-01T03:16:04.763Z,-3.86
2018-03-01T03:18:32.370Z,-3.92
2018-03-01T03:21:00.418Z,-3.76
2018-03-01T03:23:27.980Z,-3.98
2018-03-01T03:25:55.522Z,-4.17
2018-03-01T03:28:23.143Z,-3.84
2018-03-01T03:30:51.165Z,-3.89
2018-03-01T03:33:18.741Z,-4.16
2018-03-01T03:35:47.002Z,-4.16
2018-03-01T03:38:14.597Z,-4.54
2018-03-01T03:40:42.833Z,-4.89
2018-03-01T03:43:10.387Z,-5.16
2018-03-01T03:45:38.363Z,-5.03
2018-03-01T03:48:05.972Z,-4.73
2018-03-01T03:50:33.589Z,-4.86
2018-03-01T03:53:01.139Z,-4.98
2018-03-01T03:55:28.711Z,-4.66
2018-03-01T03:57:56.322Z,-4.84
2018-03-01T04:00:23.875Z,-5.10
2018-03-01T04:02:51.440Z,-5.24
2018-03-01T04:05:19.039Z,-5.59
2018-03-01T04:07:47.314Z,-5.84
2018-03-01T04:10:14.911Z,-5.75
2018-03-01T04:12:42.529Z,-5.74
2018-03-01T04:15:10.473Z,-5.70
2018-03-01T04:17:38.041Z,-4.97
2018-03-01T04:20:06.123Z,-4.29
2018-03-01T04:22:33.677Z,-3.84
2018-03-01T04:25:01.282Z,-3.52
2018-03-01T04:27:28.843Z,-3.23
2018-03-01T04:29:56.440Z,-2.97
2018-03-01T04:32:24.001Z,-2.61
2018-03-01T04:34:51.625Z,-2.43
2018-03-01T04:37:19.293Z,-1.98
2018-03-01T04:39:46.858Z,-1.67
2018-03-01T04:42:14.455Z,-1.37
2018-03-01T04:44:42.047Z,-1.17
2018-03-01T04:47:10.001Z,-1.20
2018-03-01T04:49:37.591Z,-1.12
2018-03-01T04:52:05.164Z,-1.10
2018-03-01T04:54:32.977Z,-1.36
2018-03-01T04:57:00.530Z,-1.87
2018-03-01T04:59:28.132Z,-2.56
2018-03-01T05:01:55.723Z,-3.73
2018-03-01T05:04:23.285Z,-4.03
2018-03-01T05:06:51.180Z,-4.02
2018-03-01T05:09:19.223Z,-3.71
2018-03-01T05:11:46.819Z,-3.02
2018-03-01T05:14:15.250Z,-3.08
2018-03-01T05:16:43.464Z,-2.43
2018-03-01T05:19:11.052Z,-2.90
2018-03-01T05:21:38.640Z,-2.39
2018-03-01T05:24:06.196Z,-2.04
2018-03-01T05:26:33.788Z,-2.10
2018-03-01T05:29:01.340Z,-2.09
2018-03-01T05:31:28.945Z,-1.99
2018-03-01T05:33:56.513Z,-1.66
2018-03-01T05:36:24.133Z,-1.40
2018-03-01T05:38:52.109Z,-1.55
2018-03-01T05:41:19.660Z,-1.51
2018-03-01T05:43:47.256Z,-1.42
2018-03-01T05:46:14.903Z,-1.52
2018-03-01T05:48:42.532Z,-1.25
2018-03-01T05:51:10.904Z,-1.17
2018-03-01T05:53:38.491Z,-0.48
2018-03-01T05:56:06.043Z,0.17
2018-03-01T05:58:33.648Z,0.17
2018-03-01T06:01:01.219Z,-0.29
2018-03-01T06:03:28.821Z,-0.51
2018-03-01T06:05:56.385Z,-0.43
2018-03-01T06:08:24.598Z,-0.39
2018-03-01T06:10:52.169Z,-0.02
2018-03-01T06:13:19.729Z,0.16
2018-03-01T06:15:47.337Z,0.40
2018-03-01T06:18:14.891Z,0.32
2018-03-01T06:20:42.830Z,0.38
2018-03-01T06:23:10.412Z,0.85
2018-03-01T06:25:38.381Z,1.06
2018-03-01T06:28:05.996Z,1.11
2018-03-01T06:30:33.795Z,1.25
2018-03-01T06:33:01.682Z,1.20
2018-03-01T06:35:30.364Z,1.13
2018-03-01T06:37:59.427Z,1.06
2018-03-01T06:40:27.029Z,1.02
2018-03-01T06:42:55.027Z,0.96
2018-03-01T06:45:24.014Z,0.99
2018-03-01T06:47:52.566Z,0.93
2018-03-01T06:50:20.324Z,0.75
2018-03-01T06:52:48.093Z,0.71
2018-03-01T06:55:15.653Z,0.82
2018-03-01T06:57:43.688Z,1.13
2018-03-01T07:00:11.559Z,1.26
2018-03-01T07:02:39.460Z,1.42
2018-03-01T07:05:07.015Z,1.44
2018-03-01T07:07:34.620Z,1.11
2018-03-01T07:10:02.609Z,1.01
2018-03-01T07:12:30.498Z,0.83
2018-03-01T07:14:58.551Z,0.98
2018-03-01T07:17:26.098Z,1.08
2018-03-01T07:19:54.366Z,1.16
2018-03-01T07:22:22.338Z,1.51
2018-03-01T07:24:49.891Z,1.35
2018-03-01T07:27:17.993Z,1.41
2018-03-01T07:29:45.563Z,1.38
2018-03-01T07:32:13.536Z,1.69
2018-03-01T07:34:42.422Z,1.74
2018-03-01T07:37:09.986Z,1.42
2018-03-01T07:39:38.456Z,1.35
2018-03-01T07:42:06.052Z,1.29
2018-03-01T07:44:33.619Z,1.10
2018-03-01T07:47:02.245Z,1.14
2018-03-01T07:49:30.882Z,1.18
2018-03-01T07:51:59.570Z,1.03
2018-03-01T07:54:27.807Z,1.01
2018-03-01T07:56:55.409Z,1.42
2018-03-01T07:59:23.424Z,1.47
2018-03-01T08:01:51.307Z,1.32
2018-03-01T08:04:18.961Z,1.17
2018-03-01T08:06:46.543Z,1.44
2018-03-01T08:09:14.141Z,2.23
2018-03-01T08:11:41.696Z,2.66
2018-03-01T08:14:09.817Z,2.68
2018-03-01T08:16:37.664Z,3.58
2018-03-01T08:19:05.327Z,4.29
2018-03-01T08:21:33.390Z,4.85
2018-03-01T08:24:01.875Z,5.19
2018-03-01T08:26:29.881Z,5.61
2018-03-01T08:28:58.530Z,6.00
2018-03-01T08:31:26.100Z,6.26
2018-03-01T08:33:54.387Z,6.53
2018-03-01T08:36:22.760Z,6.79
2018-03-01T08:38:50.332Z,6.90
2018-03-01T08:41:17.945Z,7.04
2018-03-01T08:43:45.547Z,7.21
2018-03-01T08:46:13.516Z,7.41
2018-03-01T08:48:41.596Z,7.61
2018-03-01T08:51:11.246Z,7.76
2018-03-01T08:53:38.824Z,7.91
2018-03-01T08:56:06.691Z,8.00
2018-03-01T08:58:34.674Z,7.92
2018-03-01T09:01:02.711Z,7.75
2018-03-01T09:03:30.320Z,7.59
2018-03-01T09:05:58.270Z,5.64
2018-03-01T09:08:26.073Z,4.83
2018-03-01T09:10:53.872Z,4.10
2018-03-01T09:13:21.436Z,3.54
2018-03-01T09:15:49.099Z,3.21
2018-03-01T09:18:16.708Z,3.97
2018-03-01T09:20:44.650Z,4.71
2018-03-01T09:23:14.236Z,3.94
2018-03-01T09:25:41.997Z,4.45
2018-03-01T09:28:09.948Z,5.12
2018-03-01T09:30:38.387Z,4.03
2018-03-01T09:33:05.998Z,3.45
2018-03-01T09:35:33.567Z,2.87
2018-03-01T09:38:02.546Z,2.80
2018-03-01T09:40:30.944Z,3.16
2018-03-01T09:42:58.525Z,4.22
2018-03-01T09:45:26.257Z,4.84
2018-03-01T09:47:53.815Z,5.48
2018-03-01T09:50:21.896Z,6.01
2018-03-01T09:52:49.511Z,6.55
2018-03-01T09:55:18.027Z,6.91
2018-03-01T09:57:46.087Z,7.25
2018-03-01T10:00:15.031Z,7.47
2018-03-01T10:02:42.690Z,7.62
2018-03-01T10:05:10.372Z,7.79
2018-03-01T10:07:40.249Z,7.94
2018-03-01T10:10:08.454Z,8.07
2018-03-01T10:12:36.598Z,8.19
2018-03-01T10:15:04.375Z,8.29
2018-03-01T10:17:32.337Z,8.51
2018-03-01T10:19:59.898Z,8.59
2018-03-01T10:22:27.998Z,8.65
2018-03-01T10:24:56.215Z,8.70
2018-03-01T10:27:26.869Z,8.77
2018-03-01T10:29:54.636Z,8.85
2018-03-01T10:32:22.747Z,8.91
2018-03-01T10:34:50.470Z,8.98
2018-03-01T10:37:20.115Z,8.94
2018-03-01T10:39:48.269Z,8.98
2018-03-01T10:42:17.446Z,8.62
2018-03-01T10:44:45.289Z,8.43
2018-03-01T10:47:12.946Z,8.34
2018-03-01T10:49:40.887Z,8.43
2018-03-01T10:52:09.100Z,8.36
2018-03-01T10:54:37.176Z,8.32
2018-03-01T10:57:05.878Z,8.38
2018-03-01T10:59:35.146Z,8.36
2018-03-01T11:02:02.805Z,8.37
2018-03-01T11:04:32.546Z,8.16
2018-03-01T11:07:00.444Z,8.16
2018-03-01T11:09:28.362Z,8.17
2018-03-01T11:11:55.971Z,8.28
2018-03-01T11:14:24.462Z,8.36
2018-03-01T11:16:52.894Z,8.42
2018-03-01T11:19:22.173Z,8.20
2018-03-01T11:21:50.730Z,8.30
2018-03-01T11:24:19.278Z,8.38
2018-03-01T11:26:50.384Z,8.61
2018-03-01T11:29:18.037Z,8.70
2018-03-01T11:31:45.793Z,8.28
2018-03-01T11:34:14.627Z,8.12
2018-03-01T11:36:43.326Z,8.00
2018-03-01T11:39:10.969Z,7.78
2018-03-01T11:41:39.133Z,7.76
2018-03-01T11:44:06.904Z,7.38
2018-03-01T11:46:35.567Z,7.35
2018-03-01T11:49:03.542Z,6.57
2018-03-01T11:51:31.510Z,6.70
2018-03-01T11:53:59.844Z,6.45
2018-03-01T11:56:30.037Z,6.55
2018-03-01T11:58:57.864Z,6.27
2018-03-01T12:01:26.576Z,6.08
2018-03-01T12:03:55.505Z,5.39
2018-03-01T12:06:23.827Z,5.72
2018-03-01T12:08:51.397Z,6.06
2018-03-01T12:11:19.378Z,6.02
2018-03-01T12:13:47.433Z,6.43
2018-03-01T12:16:15.029Z,6.79
2018-03-01T12:18:43.279Z,6.96
2018-03-01T12:21:11.794Z,7.05
2018-03-01T12:23:39.722Z,7.19
2018-03-01T12:26:07.342Z,7.20
2018-03-01T12:28:36.076Z,7.26
2018-03-01T12:31:03.685Z,7.40
2018-03-01T12:33:31.241Z,7.58
2018-03-01T12:35:58.923Z,7.85
2018-03-01T12:38:27.217Z,7.97
2018-03-01T12:40:54.817Z,8.09
2018-03-01T12:43:22.749Z,8.27
2018-03-01T12:45:50.456Z,8.41
2018-03-01T12:48:18.107Z,8.50
2018-03-01T12:50:45.997Z,8.62
2018-03-01T12:53:14.053Z,8.56
2018-03-01T12:55:41.641Z,8.70
2018-03-01T12:58:09.327Z,8.87
2018-03-01T13:00:37.227Z,8.99
2018-03-01T13:03:04.861Z,9.22
2018-03-01T13:05:32.497Z,9.44
2018-03-01T13:08:00.340Z,9.64
2018-03-01T13:10:33.986Z,9.75
2018-03-01T13:13:02.420Z,9.77
2018-03-01T13:15:29.998Z,9.75
2018-03-01T13:17:59.029Z,9.69
2018-03-01T13:20:26.858Z,9.72
2018-03-01T13:22:55.272Z,9.64
2018-03-01T13:25:23.651Z,9.36
2018-03-01T13:27:52.705Z,9.07
2018-03-01T13:30:20.301Z,8.93
2018-03-01T13:35:53.222Z,8.93
2018-03-01T13:38:21.774Z,9.10
2018-03-01T13:40:49.952Z,9.09
2018-03-01T13:43:22.382Z,8.96
2018-03-01T13:45:49.957Z,9.04
2018-03-01T13:48:17.735Z,8.96
2018-03-01T13:50:45.299Z,8.73
2018-03-01T13:53:12.978Z,8.61
2018-03-01T13:55:40.572Z,8.62
2018-03-01T13:58:08.212Z,8.39
2018-03-01T14:00:35.840Z,8.46
2018-03-01T14:03:03.463Z,8.42
2018-03-01T14:05:31.080Z,8.37
2018-03-01T14:07:58.696Z,8.31
2018-03-01T14:10:26.311Z,8.31
2018-03-01T14:16:02.224Z,8.24
2018-03-01T14:21:36.909Z,8.11
2018-03-01T14:27:19.440Z,7.99
2018-03-01T14:29:47.008Z,7.90
2018-03-01T14:32:14.580Z,7.91
2018-03-01T14:34:42.181Z,7.85
2018-03-01T14:37:10.689Z,7.69
2018-03-01T14:39:38.803Z,7.51
2018-03-01T14:42:06.404Z,7.38
2018-03-01T14:44:34.907Z,7.32
2018-03-01T14:47:02.453Z,7.10
2018-03-01T14:49:30.036Z,7.03
2018-03-01T14:51:57.592Z,7.02
2018-03-01T14:54:25.204Z,6.72
2018-03-01T14:56:52.804Z,6.73
2018-03-01T14:59:20.357Z,6.69
2018-03-01T15:01:47.947Z,6.62
2018-03-01T15:04:15.478Z,6.65
2018-03-01T15:06:43.076Z,6.71
2018-03-01T15:09:10.625Z,6.71
2018-03-01T15:11:38.220Z,6.47
2018-03-01T15:14:05.764Z,6.26
2018-03-01T15:16:33.365Z,6.19
2018-03-01T15:19:00.974Z,6.13
2018-03-01T15:21:28.608Z,5.52
2018-03-01T15:23:56.195Z,3.86
2018-03-01T15:26:23.764Z,4.18
2018-03-01T15:28:51.630Z,4.64
2018-03-01T15:31:20.118Z,4.91
2018-03-01T15:33:49.455Z,5.12
2018-03-01T15:36:17.000Z,5.18
2018-03-01T15:38:44.589Z,5.31
2018-03-01T15:41:12.951Z,5.39
2018-03-01T15:43:40.535Z,5.39
2018-03-01T15:46:08.068Z,5.40
2018-03-01T15:48:36.604Z,5.49
2018-03-01T15:51:04.146Z,5.53
2018-03-01T15:53:31.749Z,5.14
2018-03-01T15:55:59.293Z,4.99
2018-03-01T15:58:26.846Z,5.07
2018-03-01T16:00:54.881Z,5.19
2018-03-01T16:03:22.529Z,5.03
2018-03-01T16:05:50.964Z,4.81
2018-03-01T16:08:18.676Z,4.18
2018-03-01T16:10:46.874Z,4.41
2018-03-01T16:13:14.598Z,4.48
2018-03-01T16:15:42.304Z,4.53
2018-03-01T16:18:15.207Z,4.54
2018-03-01T16:20:43.117Z,4.31
2018-03-01T16:23:10.665Z,3.12
2018-03-01T16:25:39.476Z,3.23
2018-03-01T16:28:07.063Z,2.98
2018-03-01T16:30:34.652Z,3.04
2018-03-01T16:33:02.208Z,3.36
2018-03-01T16:35:29.811Z,3.20
2018-03-01T16:37:57.350Z,2.50
2018-03-01T16:40:24.929Z,2.93
2018-03-01T16:42:52.690Z,3.43
2018-03-01T16:45:20.688Z,3.61
2018-03-01T16:47:48.279Z,3.68
2018-03-01T16:50:15.817Z,3.09
2018-03-01T16:52:43.359Z,2.47
2018-03-01T16:55:11.756Z,2.30
2018-03-01T16:57:40.142Z,2.00
2018-03-01T17:00:09.332Z,1.66
2018-03-01T17:02:37.091Z,1.52
2018-03-01T17:05:06.117Z,1.32
2018-03-01T17:07:34.075Z,1.41
2018-03-01T17:10:03.107Z,0.53
2018-03-01T17:12:31.054Z,0.36
2018-03-01T17:14:58.643Z,0.75
2018-03-01T17:17:26.777Z,1.12
2018-03-01T17:19:55.082Z,0.94
2018-03-01T17:22:22.676Z,0.73
2018-03-01T17:24:50.492Z,0.81
2018-03-01T17:27:18.047Z,1.41
2018-03-01T17:29:45.584Z,1.93
2018-03-01T17:32:13.185Z,2.34
2018-03-01T17:34:41.746Z,1.97
2018-03-01T17:37:09.683Z,1.86
2018-03-01T17:39:38.248Z,1.94
2018-03-01T17:42:06.882Z,2.36
2018-03-01T17:44:34.432Z,2.58
2018-03-01T17:47:02.105Z,2.90
2018-03-01T17:49:29.702Z,2.84
2018-03-01T17:51:57.385Z,2.28
2018-03-01T17:54:25.831Z,2.49
2018-03-01T17:56:54.256Z,2.77
2018-03-01T17:59:22.120Z,2.26
2018-03-01T18:01:50.022Z,1.73
2018-03-01T18:04:17.751Z,1.73
2018-03-01T18:06:45.308Z,1.56
2018-03-01T18:09:14.508Z,1.23
2018-03-01T18:11:42.055Z,1.35
2018-03-01T18:14:09.643Z,1.07
2018-03-01T18:16:37.193Z,1.32
2018-03-01T18:19:04.942Z,1.14
2018-03-01T18:21:32.490Z,1.07
2018-03-01T18:24:00.089Z,0.87
2018-03-01T18:26:27.650Z,1.23
2018-03-01T18:28:56.029Z,1.77
2018-03-01T18:31:23.627Z,2.22
2018-03-01T18:33:51.173Z,2.48
2018-03-01T18:36:19.106Z,1.95
2018-03-01T18:38:47.065Z,2.14
2018-03-01T18:41:14.615Z,2.41
2018-03-01T18:43:42.203Z,2.24
2018-03-01T18:46:09.790Z,2.05
2018-03-01T18:48:40.167Z,2.05
2018-03-01T18:51:07.774Z,1.66
2018-03-01T18:53:35.581Z,1.82
2018-03-01T18:56:03.154Z,1.49
2018-03-01T18:58:30.756Z,0.99
2018-03-01T19:00:58.310Z,0.39
2018-03-01T19:03:26.484Z,0.20
2018-03-01T19:05:55.790Z,0.80
2018-03-01T19:08:23.333Z,1.37
2018-03-01T19:10:51.694Z,1.96
2018-03-01T19:13:19.815Z,2.21
2018-03-01T19:15:47.355Z,2.13
2018-03-01T19:18:14.894Z,1.19
2018-03-01T19:20:42.723Z,0.92
2018-03-01T19:23:11.084Z,1.34
2018-03-01T19:25:38.683Z,0.50
2018-03-01T19:28:06.553Z,-0.35
2018-03-01T19:30:34.533Z,-0.79
2018-03-01T19:33:02.141Z,-1.01
2018-03-01T19:35:30.580Z,-0.93
2018-03-01T19:37:58.244Z,-0.80
2018-03-01T19:40:25.856Z,0.03
2018-03-01T19:42:53.479Z,0.72
2018-03-01T19:45:21.047Z,0.61
2018-03-01T19:47:48.646Z,0.29
2018-03-01T19:50:19.284Z,0.48
2018-03-01T19:52:48.070Z,0.73
2018-03-01T19:55:15.660Z,1.13
2018-03-01T19:57:43.200Z,1.62
2018-03-01T20:00:10.805Z,1.27
2018-03-01T20:02:38.365Z,0.65
2018-03-01T20:05:06.323Z,0.12
2018-03-01T20:07:34.160Z,0.59
2018-03-01T20:10:01.711Z,0.63
2018-03-01T20:12:30.267Z,0.18
2018-03-01T20:14:57.830Z,0.48
2018-03-01T20:17:26.260Z,0.35
2018-03-01T20:19:54.603Z,0.08
2018-03-01T20:22:22.623Z,-0.06
2018-03-01T20:24:50.221Z,0.16
2018-03-01T20:27:18.124Z,0.21
2018-03-01T20:29:46.101Z,0.09
2018-03-01T20:32:13.690Z,0.15
2018-03-01T20:34:41.248Z,0.26
2018-03-01T20:37:08.835Z,0.79
2018-03-01T20:39:36.375Z,1.26
2018-03-01T20:42:05.705Z,1.73
2018-03-01T20:44:33.490Z,1.58
2018-03-01T20:47:01.100Z,1.37
2018-03-01T20:49:28.656Z,1.24
2018-03-01T20:51:56.208Z,1.51
2018-03-01T20:54:23.805Z,1.96
2018-03-01T20:56:51.355Z,1.59
2018-03-01T20:59:18.953Z,0.71
2018-03-01T21:01:46.896Z,0.21
2018-03-01T21:04:14.459Z,-0.01
2018-03-01T21:06:42.044Z,0.09
2018-03-01T21:09:09.600Z,-0.27
2018-03-01T21:11:37.565Z,-0.59
2018-03-01T21:14:05.151Z,-0.54
2018-03-01T21:16:32.772Z,-0.42
2018-03-01T21:19:00.652Z,-0.40
2018-03-01T21:21:28.292Z,-0.53
2018-03-01T21:23:55.952Z,0.15
2018-03-01T21:26:23.504Z,0.66
2018-03-01T21:28:51.122Z,0.89
2018-03-01T21:31:19.347Z,0.97
2018-03-01T21:33:46.946Z,0.70
2018-03-01T21:36:14.686Z,0.71
2018-03-01T21:38:42.300Z,0.62
2018-03-01T21:41:10.735Z,0.17
2018-03-01T21:43:38.332Z,-0.39
2018-03-01T21:46:05.880Z,-0.67
2018-03-01T21:48:33.553Z,-0.67
2018-03-01T21:51:01.144Z,-0.39
2018-03-01T21:53:28.794Z,-0.20
2018-03-01T21:55:56.343Z,-0.07
2018-03-01T21:58:23.991Z,0.05
2018-03-01T22:00:51.644Z,0.78
2018-03-01T22:03:20.029Z,1.29
2018-03-01T22:05:48.425Z,1.48
2018-03-01T22:08:16.486Z,1.26
2018-03-01T22:10:44.545Z,1.32
2018-03-01T22:13:12.227Z,1.72
2018-03-01T22:15:40.416Z,1.22
2018-03-01T22:18:08.345Z,1.41
2018-03-01T22:20:36.999Z,1.77
2018-03-01T22:23:04.595Z,2.05
2018-03-01T22:25:32.181Z,2.31
2018-03-01T22:27:59.743Z,2.48
2018-03-01T22:30:28.370Z,1.94
2018-03-01T22:32:58.010Z,1.88
2018-03-01T22:35:25.851Z,1.22
2018-03-01T22:37:53.502Z,1.20
2018-03-01T22:40:21.605Z,0.93
2018-03-01T22:42:49.195Z,0.64
2018-03-01T22:45:16.780Z,0.84
2018-03-01T22:47:44.451Z,1.46
2018-03-01T22:50:12.003Z,1.78
2018-03-01T22:52:39.596Z,2.03
2018-03-01T22:55:07.188Z,2.31
2018-03-01T22:57:34.767Z,2.40
2018-03-01T23:00:02.351Z,2.50
2018-03-01T23:02:29.951Z,2.55
2018-03-01T23:04:57.543Z,2.68
2018-03-01T23:07:25.082Z,2.61
2018-03-01T23:09:52.623Z,2.77
2018-03-01T23:12:20.202Z,2.35
2018-03-01T23:14:48.721Z,1.03
2018-03-01T23:17:16.329Z,0.40
2018-03-01T23:19:43.900Z,0.33
2018-03-01T23:22:11.447Z,-0.21
2018-03-01T23:24:39.297Z,-0.73
2018-03-01T23:27:06.869Z,-0.77
2018-03-01T23:29:34.424Z,-0.34
2018-03-01T23:32:02.016Z,-0.51
2018-03-01T23:34:29.620Z,-0.88
2018-03-01T23:36:57.216Z,-1.32
2018-03-01T23:39:24.816Z,-1.71
2018-03-01T23:41:52.410Z,-1.85
2018-03-01T23:44:19.954Z,-1.85
2018-03-01T23:46:47.983Z,-1.82
2018-03-01T23:49:15.528Z,-1.89
2018-03-01T23:51:43.077Z,-1.61
2018-03-01T23:54:10.964Z,-1.39
2018-03-01T23:56:38.509Z,-1.16
2018-03-01T23:59:06.098Z,-1.04
